sensor_id;sensor_type;location;lat;lon;timestamp;temperature;humidity
37002;DHT22;22913;51.910;8.374;2023-02-01T00:02:35;5.30;99.90
37002;DHT22;22913;51.910;8.374;2023-02-01T00:05:24;5.30;99.90
37002;DHT22;22913;51.910;8.374;2023-02-01T00:08:09;5.30;99.90
37002;DHT22;22913;51.910;8.374;2023-02-01T00:10:59;5.30;99.90
37002;DHT22;22913;51.910;8.374;2023-02-01T00:13:45;5.20;99.90
37002;DHT22;22913;51.910;8.374;2023-02-01T00:16:33;5.20;99.90
37002;DHT22;22913;51.910;8.374;2023-02-01T00:19:18;5.20;99.90
37002;DHT22;22913;51.910;8.374;2023-02-01T00:22:04;5.20;99.90
37002;DHT22;22913;51.910;8.374;2023-02-01T00:24:49;5.20;99.90
37002;DHT22;22913;51.910;8.374;2023-02-01T00:27:35;5.20;99.90
37002;DHT22;22913;51.910;8.374;2023-02-01T00:30:21;5.10;99.90
37002;DHT22;22913;51.910;8.374;2023-02-01T00:33:08;5.20;99.90
37002;DHT22;22913;51.910;8.374;2023-02-01T00:35:56;5.10;99.90
37002;DHT22;22913;51.910;8.374;2023-02-01T00:38:42;5.10;99.90
37002;DHT22;22913;51.910;8.374;2023-02-01T00:41:28;5.20;99.90
37002;DHT22;22913;51.910;8.374;2023-02-01T00:44:14;5.20;99.90
37002;DHT22;22913;51.910;8.374;2023-02-01T00:47:00;5.20;99.90
37002;DHT22;22913;51.910;8.374;2023-02-01T00:49:47;5.10;99.90
37002;DHT22;22913;51.910;8.374;2023-02-01T00:52:32;5.20;99.90
37002;DHT22;22913;51.910;8.374;2023-02-01T00:55:18;5.20;99.90
37002;DHT22;22913;51.910;8.374;2023-02-01T00:58:03;5.20;99.90
37002;DHT22;22913;51.910;8.374;2023-02-01T01:00:50;5.20;99.90
37002;DHT22;22913;51.910;8.374;2023-02-01T01:03:37;5.20;99.90
37002;DHT22;22913;51.910;8.374;2023-02-01T01:06:26;5.20;99.90
37002;DHT22;22913;51.910;8.374;2023-02-01T01:09:12;5.20;99.90
37002;DHT22;22913;51.910;8.374;2023-02-01T01:11:58;5.20;99.90
37002;DHT22;22913;51.910;8.374;2023-02-01T01:14:46;5.20;99.90
37002;DHT22;22913;51.910;8.374;2023-02-01T01:17:32;5.20;99.90
37002;DHT22;22913;51.910;8.374;2023-02-01T01:20:17;5.20;99.90
37002;DHT22;22913;51.910;8.374;2023-02-01T01:23:08;5.30;99.90
37002;DHT22;22913;51.910;8.374;2023-02-01T01:25:54;5.30;99.90
37002;DHT22;22913;51.910;8.374;2023-02-01T01:28:39;5.30;99.90
37002;DHT22;22913;51.910;8.374;2023-02-01T01:31:25;5.40;99.90
37002;DHT22;22913;51.910;8.374;2023-02-01T01:34:11;5.40;99.90
37002;DHT22;22913;51.910;8.374;2023-02-01T01:36:57;5.50;99.90
37002;DHT22;22913;51.910;8.374;2023-02-01T01:39:44;5.50;99.90
37002;DHT22;22913;51.910;8.374;2023-02-01T01:42:29;5.50;99.90
37002;DHT22;22913;51.910;8.374;2023-02-01T01:45:23;5.50;99.90
37002;DHT22;22913;51.910;8.374;2023-02-01T01:48:11;5.50;99.90
37002;DHT22;22913;51.910;8.374;2023-02-01T01:51:01;5.50;99.90
37002;DHT22;22913;51.910;8.374;2023-02-01T01:53:54;5.50;99.90
37002;DHT22;22913;51.910;8.374;2023-02-01T01:56:42;5.50;99.90
37002;DHT22;22913;51.910;8.374;2023-02-01T01:59:28;5.50;99.90
37002;DHT22;22913;51.910;8.374;2023-02-01T02:02:16;5.50;99.90
37002;DHT22;22913;51.910;8.374;2023-02-01T02:05:02;5.50;99.90
37002;DHT22;22913;51.910;8.374;2023-02-01T02:07:49;5.50;99.90
37002;DHT22;22913;51.910;8.374;2023-02-01T02:10:36;5.50;99.90
37002;DHT22;22913;51.910;8.374;2023-02-01T02:13:42;5.50;99.90
37002;DHT22;22913;51.910;8.374;2023-02-01T02:16:40;5.50;99.90
37002;DHT22;22913;51.910;8.374;2023-02-01T02:23:02;5.50;99.90
37002;DHT22;22913;51.910;8.374;2023-02-01T02:26:25;5.60;99.90
37002;DHT22;22913;51.910;8.374;2023-02-01T02:32:58;5.60;99.90
37002;DHT22;22913;51.910;8.374;2023-02-01T02:35:55;5.60;99.90
37002;DHT22;22913;51.910;8.374;2023-02-01T02:38:50;5.60;99.90
37002;DHT22;22913;51.910;8.374;2023-02-01T02:41:45;5.60;99.90
37002;DHT22;22913;51.910;8.374;2023-02-01T02:44:55;5.60;99.90
37002;DHT22;22913;51.910;8.374;2023-02-01T02:48:08;5.60;99.90
37002;DHT22;22913;51.910;8.374;2023-02-01T02:51:01;5.60;99.90
37002;DHT22;22913;51.910;8.374;2023-02-01T02:54:07;5.70;99.90
37002;DHT22;22913;51.910;8.374;2023-02-01T02:57:14;5.60;99.90
37002;DHT22;22913;51.910;8.374;2023-02-01T03:00:20;5.70;99.90
37002;DHT22;22913;51.910;8.374;2023-02-01T03:03:24;5.70;99.90
37002;DHT22;22913;51.910;8.374;2023-02-01T03:06:28;5.80;99.90
37002;DHT22;22913;51.910;8.374;2023-02-01T03:09:22;5.80;99.90
37002;DHT22;22913;51.910;8.374;2023-02-01T03:12:11;5.80;99.90
37002;DHT22;22913;51.910;8.374;2023-02-01T03:15:16;5.80;99.90
37002;DHT22;22913;51.910;8.374;2023-02-01T03:18:06;5.80;99.90
37002;DHT22;22913;51.910;8.374;2023-02-01T03:20:56;5.80;99.90
37002;DHT22;22913;51.910;8.374;2023-02-01T03:23:44;5.70;99.90
37002;DHT22;22913;51.910;8.374;2023-02-01T03:26:36;5.80;99.90
37002;DHT22;22913;51.910;8.374;2023-02-01T03:29:24;5.80;99.90
37002;DHT22;22913;51.910;8.374;2023-02-01T03:32:12;5.80;99.90
37002;DHT22;22913;51.910;8.374;2023-02-01T03:34:58;5.80;99.90
37002;DHT22;22913;51.910;8.374;2023-02-01T03:37:44;5.90;99.90
37002;DHT22;22913;51.910;8.374;2023-02-01T03:40:35;5.80;99.90
37002;DHT22;22913;51.910;8.374;2023-02-01T03:43:22;5.80;99.90
37002;DHT22;22913;51.910;8.374;2023-02-01T03:46:14;5.80;99.90
37002;DHT22;22913;51.910;8.374;2023-02-01T03:49:02;5.80;99.90
37002;DHT22;22913;51.910;8.374;2023-02-01T03:51:50;5.80;99.90
37002;DHT22;22913;51.910;8.374;2023-02-01T03:54:37;5.80;99.90
37002;DHT22;22913;51.910;8.374;2023-02-01T03:57:28;5.90;99.90
37002;DHT22;22913;51.910;8.374;2023-02-01T04:00:18;5.90;99.90
37002;DHT22;22913;51.910;8.374;2023-02-01T04:03:06;5.80;99.90
37002;DHT22;22913;51.910;8.374;2023-02-01T04:05:53;5.80;99.90
37002;DHT22;22913;51.910;8.374;2023-02-01T04:08:39;5.90;99.90
37002;DHT22;22913;51.910;8.374;2023-02-01T04:11:24;5.90;99.90
37002;DHT22;22913;51.910;8.374;2023-02-01T04:14:12;5.90;99.90
37002;DHT22;22913;51.910;8.374;2023-02-01T04:16:58;5.90;99.90
37002;DHT22;22913;51.910;8.374;2023-02-01T04:19:44;5.90;99.90
37002;DHT22;22913;51.910;8.374;2023-02-01T04:22:29;5.90;99.90
37002;DHT22;22913;51.910;8.374;2023-02-01T04:25:15;5.90;99.90
37002;DHT22;22913;51.910;8.374;2023-02-01T04:28:01;5.90;99.90
37002;DHT22;22913;51.910;8.374;2023-02-01T04:30:48;6.00;99.90
37002;DHT22;22913;51.910;8.374;2023-02-01T04:33:33;6.00;99.90
37002;DHT22;22913;51.910;8.374;2023-02-01T04:36:19;6.00;99.90
37002;DHT22;22913;51.910;8.374;2023-02-01T04:39:08;6.00;99.90
37002;DHT22;22913;51.910;8.374;2023-02-01T04:41:54;6.00;99.90
37002;DHT22;22913;51.910;8.374;2023-02-01T04:44:39;6.00;99.90
37002;DHT22;22913;51.910;8.374;2023-02-01T04:47:27;6.10;99.90
37002;DHT22;22913;51.910;8.374;2023-02-01T04:50:12;6.10;99.90
37002;DHT22;22913;51.910;8.374;2023-02-01T04:52:58;6.10;99.90
37002;DHT22;22913;51.910;8.374;2023-02-01T04:55:44;6.00;99.90
37002;DHT22;22913;51.910;8.374;2023-02-01T04:58:30;6.00;99.90
37002;DHT22;22913;51.910;8.374;2023-02-01T05:01:16;6.00;99.90
37002;DHT22;22913;51.910;8.374;2023-02-01T05:04:03;6.00;99.90
37002;DHT22;22913;51.910;8.374;2023-02-01T05:06:48;5.90;99.90
37002;DHT22;22913;51.910;8.374;2023-02-01T05:09:34;5.90;99.90
37002;DHT22;22913;51.910;8.374;2023-02-01T05:12:20;5.90;99.90
37002;DHT22;22913;51.910;8.374;2023-02-01T05:15:23;5.90;99.90
37002;DHT22;22913;51.910;8.374;2023-02-01T05:18:09;5.80;99.90
37002;DHT22;22913;51.910;8.374;2023-02-01T05:20:56;5.80;99.90
37002;DHT22;22913;51.910;8.374;2023-02-01T05:23:42;5.90;99.90
37002;DHT22;22913;51.910;8.374;2023-02-01T05:26:45;5.90;99.90
37002;DHT22;22913;51.910;8.374;2023-02-01T05:29:31;5.90;99.90
37002;DHT22;22913;51.910;8.374;2023-02-01T05:32:16;5.90;99.90
37002;DHT22;22913;51.910;8.374;2023-02-01T05:35:03;5.80;99.90
37002;DHT22;22913;51.910;8.374;2023-02-01T05:37:50;5.80;99.90
37002;DHT22;22913;51.910;8.374;2023-02-01T05:40:35;5.90;99.90
37002;DHT22;22913;51.910;8.374;2023-02-01T05:43:21;5.80;99.90
37002;DHT22;22913;51.910;8.374;2023-02-01T05:46:06;5.90;99.90
37002;DHT22;22913;51.910;8.374;2023-02-01T05:48:55;5.90;99.90
37002;DHT22;22913;51.910;8.374;2023-02-01T05:51:40;5.90;99.90
37002;DHT22;22913;51.910;8.374;2023-02-01T05:54:27;5.90;99.90
37002;DHT22;22913;51.910;8.374;2023-02-01T05:57:13;5.90;99.90
37002;DHT22;22913;51.910;8.374;2023-02-01T05:59:59;5.90;99.90
37002;DHT22;22913;51.910;8.374;2023-02-01T06:02:44;5.90;99.90
37002;DHT22;22913;51.910;8.374;2023-02-01T06:05:30;5.90;99.90
37002;DHT22;22913;51.910;8.374;2023-02-01T06:08:16;5.90;99.90
37002;DHT22;22913;51.910;8.374;2023-02-01T06:11:04;6.00;99.90
37002;DHT22;22913;51.910;8.374;2023-02-01T06:13:49;6.00;99.90
37002;DHT22;22913;51.910;8.374;2023-02-01T06:16:35;6.00;99.90
37002;DHT22;22913;51.910;8.374;2023-02-01T06:19:21;5.90;99.90
37002;DHT22;22913;51.910;8.374;2023-02-01T06:22:06;5.90;99.90
37002;DHT22;22913;51.910;8.374;2023-02-01T06:24:52;5.90;99.90
37002;DHT22;22913;51.910;8.374;2023-02-01T06:27:39;6.00;99.90
37002;DHT22;22913;51.910;8.374;2023-02-01T06:30:24;6.00;99.90
37002;DHT22;22913;51.910;8.374;2023-02-01T06:33:10;6.00;99.90
37002;DHT22;22913;51.910;8.374;2023-02-01T06:35:59;5.90;99.90
37002;DHT22;22913;51.910;8.374;2023-02-01T06:38:45;5.90;99.90
37002;DHT22;22913;51.910;8.374;2023-02-01T06:41:31;5.90;99.90
37002;DHT22;22913;51.910;8.374;2023-02-01T06:44:20;5.90;99.90
37002;DHT22;22913;51.910;8.374;2023-02-01T06:47:06;5.90;99.90
37002;DHT22;22913;51.910;8.374;2023-02-01T06:49:51;6.00;99.90
37002;DHT22;22913;51.910;8.374;2023-02-01T06:52:37;6.00;99.90
37002;DHT22;22913;51.910;8.374;2023-02-01T06:55:22;5.90;99.90
37002;DHT22;22913;51.910;8.374;2023-02-01T06:58:08;5.90;99.90
37002;DHT22;22913;51.910;8.374;2023-02-01T07:00:55;5.90;99.90
37002;DHT22;22913;51.910;8.374;2023-02-01T07:03:41;6.00;99.90
37002;DHT22;22913;51.910;8.374;2023-02-01T07:06:26;6.00;99.90
37002;DHT22;22913;51.910;8.374;2023-02-01T07:09:12;6.00;99.90
37002;DHT22;22913;51.910;8.374;2023-02-01T07:11:58;5.90;99.90
37002;DHT22;22913;51.910;8.374;2023-02-01T07:14:43;6.00;99.90
37002;DHT22;22913;51.910;8.374;2023-02-01T07:17:31;6.00;99.90
37002;DHT22;22913;51.910;8.374;2023-02-01T07:20:16;6.00;99.90
37002;DHT22;22913;51.910;8.374;2023-02-01T07:23:02;6.00;99.90
37002;DHT22;22913;51.910;8.374;2023-02-01T07:25:48;6.00;99.90
37002;DHT22;22913;51.910;8.374;2023-02-01T07:28:35;6.00;99.90
37002;DHT22;22913;51.910;8.374;2023-02-01T07:31:22;6.00;99.90
37002;DHT22;22913;51.910;8.374;2023-02-01T07:34:11;6.00;99.90
37002;DHT22;22913;51.910;8.374;2023-02-01T07:36:57;6.00;99.90
37002;DHT22;22913;51.910;8.374;2023-02-01T07:39:42;6.00;99.90
37002;DHT22;22913;51.910;8.374;2023-02-01T07:42:28;6.00;99.90
37002;DHT22;22913;51.910;8.374;2023-02-01T07:45:13;6.00;99.90
37002;DHT22;22913;51.910;8.374;2023-02-01T07:48:00;6.00;99.90
37002;DHT22;22913;51.910;8.374;2023-02-01T07:50:47;6.00;99.90
37002;DHT22;22913;51.910;8.374;2023-02-01T07:53:34;6.00;99.90
37002;DHT22;22913;51.910;8.374;2023-02-01T07:56:20;6.00;99.90
37002;DHT22;22913;51.910;8.374;2023-02-01T07:59:07;6.00;99.90
37002;DHT22;22913;51.910;8.374;2023-02-01T08:01:52;6.00;99.90
37002;DHT22;22913;51.910;8.374;2023-02-01T08:04:38;6.00;99.90
37002;DHT22;22913;51.910;8.374;2023-02-01T08:07:25;6.00;99.90
37002;DHT22;22913;51.910;8.374;2023-02-01T08:10:11;6.00;99.90
37002;DHT22;22913;51.910;8.374;2023-02-01T08:12:59;6.00;99.90
37002;DHT22;22913;51.910;8.374;2023-02-01T08:15:45;6.00;99.90
37002;DHT22;22913;51.910;8.374;2023-02-01T08:18:31;6.00;99.90
37002;DHT22;22913;51.910;8.374;2023-02-01T08:21:17;6.00;99.90
37002;DHT22;22913;51.910;8.374;2023-02-01T08:24:07;6.00;99.90
37002;DHT22;22913;51.910;8.374;2023-02-01T08:26:53;6.10;99.90
37002;DHT22;22913;51.910;8.374;2023-02-01T08:29:39;6.20;99.90
37002;DHT22;22913;51.910;8.374;2023-02-01T08:32:25;6.20;99.90
37002;DHT22;22913;51.910;8.374;2023-02-01T08:35:10;6.20;99.90
37002;DHT22;22913;51.910;8.374;2023-02-01T08:37:56;6.20;99.90
37002;DHT22;22913;51.910;8.374;2023-02-01T08:40:43;6.20;99.90
37002;DHT22;22913;51.910;8.374;2023-02-01T08:43:29;6.30;99.90
37002;DHT22;22913;51.910;8.374;2023-02-01T08:46:16;6.30;99.90
37002;DHT22;22913;51.910;8.374;2023-02-01T08:49:02;6.30;99.90
37002;DHT22;22913;51.910;8.374;2023-02-01T08:51:47;6.30;99.90
37002;DHT22;22913;51.910;8.374;2023-02-01T08:54:33;6.30;99.90
37002;DHT22;22913;51.910;8.374;2023-02-01T08:57:20;6.40;99.90
37002;DHT22;22913;51.910;8.374;2023-02-01T09:00:08;6.40;99.90
37002;DHT22;22913;51.910;8.374;2023-02-01T09:02:55;6.40;99.90
37002;DHT22;22913;51.910;8.374;2023-02-01T09:05:41;6.40;99.90
37002;DHT22;22913;51.910;8.374;2023-02-01T09:08:26;6.40;99.90
37002;DHT22;22913;51.910;8.374;2023-02-01T09:11:14;6.50;99.90
37002;DHT22;22913;51.910;8.374;2023-02-01T09:14:01;6.40;99.90
37002;DHT22;22913;51.910;8.374;2023-02-01T09:16:47;6.40;99.90
37002;DHT22;22913;51.910;8.374;2023-02-01T09:19:33;6.50;99.90
37002;DHT22;22913;51.910;8.374;2023-02-01T09:22:19;6.40;99.90
37002;DHT22;22913;51.910;8.374;2023-02-01T09:25:05;6.50;99.90
37002;DHT22;22913;51.910;8.374;2023-02-01T09:27:51;6.50;99.90
37002;DHT22;22913;51.910;8.374;2023-02-01T09:30:38;6.50;99.90
37002;DHT22;22913;51.910;8.374;2023-02-01T09:33:24;6.60;99.90
37002;DHT22;22913;51.910;8.374;2023-02-01T09:36:10;6.60;99.90
37002;DHT22;22913;51.910;8.374;2023-02-01T09:38:56;6.60;99.90
37002;DHT22;22913;51.910;8.374;2023-02-01T09:41:50;6.60;99.90
37002;DHT22;22913;51.910;8.374;2023-02-01T09:44:46;6.60;99.90
37002;DHT22;22913;51.910;8.374;2023-02-01T09:47:39;6.60;99.90
37002;DHT22;22913;51.910;8.374;2023-02-01T09:50:33;6.60;99.90
37002;DHT22;22913;51.910;8.374;2023-02-01T09:53:25;6.70;99.90
37002;DHT22;22913;51.910;8.374;2023-02-01T09:56:15;6.60;99.90
37002;DHT22;22913;51.910;8.374;2023-02-01T09:59:10;6.50;99.90
37002;DHT22;22913;51.910;8.374;2023-02-01T10:02:01;6.50;99.90
37002;DHT22;22913;51.910;8.374;2023-02-01T10:04:49;6.50;99.90
37002;DHT22;22913;51.910;8.374;2023-02-01T10:07:39;6.60;99.90
37002;DHT22;22913;51.910;8.374;2023-02-01T10:10:33;6.50;99.90
37002;DHT22;22913;51.910;8.374;2023-02-01T10:13:41;6.70;99.90
37002;DHT22;22913;51.910;8.374;2023-02-01T10:16:36;6.80;99.90
37002;DHT22;22913;51.910;8.374;2023-02-01T10:19:32;6.90;99.90
37002;DHT22;22913;51.910;8.374;2023-02-01T10:22:29;6.90;99.90
37002;DHT22;22913;51.910;8.374;2023-02-01T10:25:21;6.90;99.90
37002;DHT22;22913;51.910;8.374;2023-02-01T10:28:14;6.90;99.90
37002;DHT22;22913;51.910;8.374;2023-02-01T10:31:01;7.00;99.90
37002;DHT22;22913;51.910;8.374;2023-02-01T10:33:49;6.90;99.90
37002;DHT22;22913;51.910;8.374;2023-02-01T10:36:36;6.90;99.90
37002;DHT22;22913;51.910;8.374;2023-02-01T10:39:26;7.00;99.90
37002;DHT22;22913;51.910;8.374;2023-02-01T10:42:12;7.00;99.90
37002;DHT22;22913;51.910;8.374;2023-02-01T10:44:59;7.00;99.90
37002;DHT22;22913;51.910;8.374;2023-02-01T10:47:46;7.00;99.90
37002;DHT22;22913;51.910;8.374;2023-02-01T10:50:35;7.10;99.90
37002;DHT22;22913;51.910;8.374;2023-02-01T10:53:28;7.00;99.90
37002;DHT22;22913;51.910;8.374;2023-02-01T10:56:22;7.00;99.90
37002;DHT22;22913;51.910;8.374;2023-02-01T10:59:15;7.00;99.90
37002;DHT22;22913;51.910;8.374;2023-02-01T11:02:13;7.10;99.90
37002;DHT22;22913;51.910;8.374;2023-02-01T11:05:01;7.00;99.90
37002;DHT22;22913;51.910;8.374;2023-02-01T11:07:49;7.00;99.90
37002;DHT22;22913;51.910;8.374;2023-02-01T11:10:36;7.10;99.90
37002;DHT22;22913;51.910;8.374;2023-02-01T11:13:28;7.20;99.90
37002;DHT22;22913;51.910;8.374;2023-02-01T11:16:14;7.20;99.90
37002;DHT22;22913;51.910;8.374;2023-02-01T11:19:00;7.20;99.90
37002;DHT22;22913;51.910;8.374;2023-02-01T11:21:49;7.30;99.90
37002;DHT22;22913;51.910;8.374;2023-02-01T11:24:36;7.20;99.90
37002;DHT22;22913;51.910;8.374;2023-02-01T11:27:24;7.10;99.90
37002;DHT22;22913;51.910;8.374;2023-02-01T11:30:14;7.10;99.90
37002;DHT22;22913;51.910;8.374;2023-02-01T11:33:04;7.00;99.90
37002;DHT22;22913;51.910;8.374;2023-02-01T11:35:52;7.00;99.90
37002;DHT22;22913;51.910;8.374;2023-02-01T11:38:37;7.00;99.90
37002;DHT22;22913;51.910;8.374;2023-02-01T11:41:25;7.00;99.90
37002;DHT22;22913;51.910;8.374;2023-02-01T11:44:21;7.00;99.90
37002;DHT22;22913;51.910;8.374;2023-02-01T11:47:23;7.00;99.90
37002;DHT22;22913;51.910;8.374;2023-02-01T11:50:14;6.90;99.90
37002;DHT22;22913;51.910;8.374;2023-02-01T11:53:13;6.80;99.90
37002;DHT22;22913;51.910;8.374;2023-02-01T11:56:10;6.80;99.90
37002;DHT22;22913;51.910;8.374;2023-02-01T11:59:11;6.70;99.90
37002;DHT22;22913;51.910;8.374;2023-02-01T12:02:28;6.70;99.90
37002;DHT22;22913;51.910;8.374;2023-02-01T12:05:26;6.50;99.90
37002;DHT22;22913;51.910;8.374;2023-02-01T12:08:45;6.40;99.90
37002;DHT22;22913;51.910;8.374;2023-02-01T12:11:52;6.30;99.90
37002;DHT22;22913;51.910;8.374;2023-02-01T12:15:08;6.30;99.90
37002;DHT22;22913;51.910;8.374;2023-02-01T12:18:11;6.20;99.90
37002;DHT22;22913;51.910;8.374;2023-02-01T12:21:06;6.20;99.90
37002;DHT22;22913;51.910;8.374;2023-02-01T12:24:21;6.10;99.90
37002;DHT22;22913;51.910;8.374;2023-02-01T12:27:23;6.00;99.90
37002;DHT22;22913;51.910;8.374;2023-02-01T12:30:30;6.00;99.90
37002;DHT22;22913;51.910;8.374;2023-02-01T12:33:29;5.90;99.90
37002;DHT22;22913;51.910;8.374;2023-02-01T12:36:21;5.90;99.90
37002;DHT22;22913;51.910;8.374;2023-02-01T12:39:16;5.80;99.90
37002;DHT22;22913;51.910;8.374;2023-02-01T12:42:10;5.80;99.90
37002;DHT22;22913;51.910;8.374;2023-02-01T12:45:02;5.70;99.90
37002;DHT22;22913;51.910;8.374;2023-02-01T12:47:55;5.70;99.90
37002;DHT22;22913;51.910;8.374;2023-02-01T12:50:46;5.60;99.90
37002;DHT22;22913;51.910;8.374;2023-02-01T12:53:42;5.60;99.90
37002;DHT22;22913;51.910;8.374;2023-02-01T12:56:32;5.60;99.90
37002;DHT22;22913;51.910;8.374;2023-02-01T12:59:22;5.60;99.90
37002;DHT22;22913;51.910;8.374;2023-02-01T13:02:15;5.60;99.90
37002;DHT22;22913;51.910;8.374;2023-02-01T13:05:11;5.50;99.90
37002;DHT22;22913;51.910;8.374;2023-02-01T13:08:02;5.50;99.90
37002;DHT22;22913;51.910;8.374;2023-02-01T13:10:55;5.50;99.90
37002;DHT22;22913;51.910;8.374;2023-02-01T13:13:48;5.50;99.90
37002;DHT22;22913;51.910;8.374;2023-02-01T13:16:37;5.60;99.90
37002;DHT22;22913;51.910;8.374;2023-02-01T13:19:28;5.60;99.90
37002;DHT22;22913;51.910;8.374;2023-02-01T13:22:27;5.70;99.90
37002;DHT22;22913;51.910;8.374;2023-02-01T13:25:25;5.70;99.90
37002;DHT22;22913;51.910;8.374;2023-02-01T13:28:16;5.70;99.90
37002;DHT22;22913;51.910;8.374;2023-02-01T13:31:34;5.80;99.90
37002;DHT22;22913;51.910;8.374;2023-02-01T13:34:45;5.90;99.90
37002;DHT22;22913;51.910;8.374;2023-02-01T13:37:47;5.90;99.90
37002;DHT22;22913;51.910;8.374;2023-02-01T13:40:42;5.90;99.90
37002;DHT22;22913;51.910;8.374;2023-02-01T13:43:30;6.00;99.90
37002;DHT22;22913;51.910;8.374;2023-02-01T13:46:16;6.00;99.90
37002;DHT22;22913;51.910;8.374;2023-02-01T13:49:02;6.10;99.90
37002;DHT22;22913;51.910;8.374;2023-02-01T13:51:50;6.10;99.90
37002;DHT22;22913;51.910;8.374;2023-02-01T13:54:38;6.20;99.90
37002;DHT22;22913;51.910;8.374;2023-02-01T13:57:35;6.20;99.90
37002;DHT22;22913;51.910;8.374;2023-02-01T14:00:27;6.20;99.90
37002;DHT22;22913;51.910;8.374;2023-02-01T14:03:17;6.20;99.90
37002;DHT22;22913;51.910;8.374;2023-02-01T14:06:15;6.20;99.90
37002;DHT22;22913;51.910;8.374;2023-02-01T14:09:17;6.20;99.90
37002;DHT22;22913;51.910;8.374;2023-02-01T14:15:28;6.20;99.90
37002;DHT22;22913;51.910;8.374;2023-02-01T14:21:33;6.20;99.90
37002;DHT22;22913;51.910;8.374;2023-02-01T14:24:24;6.30;99.90
37002;DHT22;22913;51.910;8.374;2023-02-01T14:27:17;6.40;99.90
37002;DHT22;22913;51.910;8.374;2023-02-01T14:30:06;6.40;99.90
37002;DHT22;22913;51.910;8.374;2023-02-01T14:32:54;6.30;99.90
37002;DHT22;22913;51.910;8.374;2023-02-01T14:35:39;6.40;99.90
37002;DHT22;22913;51.910;8.374;2023-02-01T14:38:25;6.40;99.90
37002;DHT22;22913;51.910;8.374;2023-02-01T14:41:31;6.40;99.90
37002;DHT22;22913;51.910;8.374;2023-02-01T14:44:29;6.30;99.90
37002;DHT22;22913;51.910;8.374;2023-02-01T14:47:30;6.40;99.90
37002;DHT22;22913;51.910;8.374;2023-02-01T14:50:31;6.20;99.90
37002;DHT22;22913;51.910;8.374;2023-02-01T14:53:20;6.10;99.90
37002;DHT22;22913;51.910;8.374;2023-02-01T14:56:11;5.80;99.90
37002;DHT22;22913;51.910;8.374;2023-02-01T14:59:07;5.50;99.90
37002;DHT22;22913;51.910;8.374;2023-02-01T15:01:57;5.30;99.90
37002;DHT22;22913;51.910;8.374;2023-02-01T15:04:44;5.30;99.90
37002;DHT22;22913;51.910;8.374;2023-02-01T15:07:32;5.10;99.90
37002;DHT22;22913;51.910;8.374;2023-02-01T15:10:18;5.10;99.90
37002;DHT22;22913;51.910;8.374;2023-02-01T15:13:18;5.10;99.90
37002;DHT22;22913;51.910;8.374;2023-02-01T15:16:07;5.10;99.90
37002;DHT22;22913;51.910;8.374;2023-02-01T15:19:08;5.10;99.90
37002;DHT22;22913;51.910;8.374;2023-02-01T15:21:56;5.10;99.90
37002;DHT22;22913;51.910;8.374;2023-02-01T15:24:43;5.10;99.90
37002;DHT22;22913;51.910;8.374;2023-02-01T15:27:30;5.00;99.90
37002;DHT22;22913;51.910;8.374;2023-02-01T15:30:17;5.10;99.90
37002;DHT22;22913;51.910;8.374;2023-02-01T15:33:06;5.10;99.90
37002;DHT22;22913;51.910;8.374;2023-02-01T15:35:53;5.10;99.90
37002;DHT22;22913;51.910;8.374;2023-02-01T15:38:40;5.10;99.90
37002;DHT22;22913;51.910;8.374;2023-02-01T15:41:30;5.20;99.90
37002;DHT22;22913;51.910;8.374;2023-02-01T15:44:26;5.20;99.90
37002;DHT22;22913;51.910;8.374;2023-02-01T15:47:15;5.30;99.90
37002;DHT22;22913;51.910;8.374;2023-02-01T15:50:02;5.40;99.90
37002;DHT22;22913;51.910;8.374;2023-02-01T15:52:48;5.50;99.90
37002;DHT22;22913;51.910;8.374;2023-02-01T15:55:37;5.50;99.90
37002;DHT22;22913;51.910;8.374;2023-02-01T15:58:25;5.50;99.90
37002;DHT22;22913;51.910;8.374;2023-02-01T16:01:13;5.40;99.90
37002;DHT22;22913;51.910;8.374;2023-02-01T16:04:09;5.50;99.90
37002;DHT22;22913;51.910;8.374;2023-02-01T16:07:00;5.50;99.90
37002;DHT22;22913;51.910;8.374;2023-02-01T16:09:52;5.60;99.90
37002;DHT22;22913;51.910;8.374;2023-02-01T16:12:46;5.60;99.90
37002;DHT22;22913;51.910;8.374;2023-02-01T16:15:33;5.60;99.90
37002;DHT22;22913;51.910;8.374;2023-02-01T16:18:19;5.60;99.90
37002;DHT22;22913;51.910;8.374;2023-02-01T16:21:05;5.60;99.90
37002;DHT22;22913;51.910;8.374;2023-02-01T16:23:52;5.60;99.90
37002;DHT22;22913;51.910;8.374;2023-02-01T16:26:39;5.60;99.90
37002;DHT22;22913;51.910;8.374;2023-02-01T16:29:24;5.70;99.90
37002;DHT22;22913;51.910;8.374;2023-02-01T16:32:16;5.60;99.90
37002;DHT22;22913;51.910;8.374;2023-02-01T16:35:03;5.60;99.90
37002;DHT22;22913;51.910;8.374;2023-02-01T16:37:49;5.60;99.90
37002;DHT22;22913;51.910;8.374;2023-02-01T16:40:34;5.60;99.90
37002;DHT22;22913;51.910;8.374;2023-02-01T16:43:22;5.60;99.90
37002;DHT22;22913;51.910;8.374;2023-02-01T16:46:13;5.50;99.90
37002;DHT22;22913;51.910;8.374;2023-02-01T16:49:02;5.60;99.90
37002;DHT22;22913;51.910;8.374;2023-02-01T16:51:49;5.50;99.90
37002;DHT22;22913;51.910;8.374;2023-02-01T16:54:36;5.60;99.90
37002;DHT22;22913;51.910;8.374;2023-02-01T16:57:22;5.50;99.90
37002;DHT22;22913;51.910;8.374;2023-02-01T17:00:09;5.50;99.90
37002;DHT22;22913;51.910;8.374;2023-02-01T17:02:55;5.50;99.90
37002;DHT22;22913;51.910;8.374;2023-02-01T17:05:43;5.50;99.90
37002;DHT22;22913;51.910;8.374;2023-02-01T17:08:32;5.50;99.90
37002;DHT22;22913;51.910;8.374;2023-02-01T17:11:18;5.50;99.90
37002;DHT22;22913;51.910;8.374;2023-02-01T17:14:14;5.50;99.90
37002;DHT22;22913;51.910;8.374;2023-02-01T17:17:00;5.50;99.90
37002;DHT22;22913;51.910;8.374;2023-02-01T17:19:48;5.50;99.90
37002;DHT22;22913;51.910;8.374;2023-02-01T17:22:37;5.50;99.90
37002;DHT22;22913;51.910;8.374;2023-02-01T17:25:23;5.50;99.90
37002;DHT22;22913;51.910;8.374;2023-02-01T17:28:10;5.50;99.90
37002;DHT22;22913;51.910;8.374;2023-02-01T17:30:56;5.60;99.90
37002;DHT22;22913;51.910;8.374;2023-02-01T17:33:42;5.60;99.90
37002;DHT22;22913;51.910;8.374;2023-02-01T17:36:28;5.60;99.90
37002;DHT22;22913;51.910;8.374;2023-02-01T17:39:16;5.70;99.90
37002;DHT22;22913;51.910;8.374;2023-02-01T17:42:15;5.70;99.90
37002;DHT22;22913;51.910;8.374;2023-02-01T17:45:16;5.80;99.90
37002;DHT22;22913;51.910;8.374;2023-02-01T17:48:04;5.90;99.90
37002;DHT22;22913;51.910;8.374;2023-02-01T17:50:50;5.90;99.90
37002;DHT22;22913;51.910;8.374;2023-02-01T17:53:41;5.90;99.90
37002;DHT22;22913;51.910;8.374;2023-02-01T17:56:29;5.80;99.90
37002;DHT22;22913;51.910;8.374;2023-02-01T17:59:15;5.70;99.90
37002;DHT22;22913;51.910;8.374;2023-02-01T18:02:01;5.60;99.90
37002;DHT22;22913;51.910;8.374;2023-02-01T18:04:47;5.50;99.90
37002;DHT22;22913;51.910;8.374;2023-02-01T18:07:33;5.50;99.90
37002;DHT22;22913;51.910;8.374;2023-02-01T18:10:19;5.50;99.90
37002;DHT22;22913;51.910;8.374;2023-02-01T18:13:06;5.40;99.90
37002;DHT22;22913;51.910;8.374;2023-02-01T18:15:53;5.40;99.90
37002;DHT22;22913;51.910;8.374;2023-02-01T18:18:39;5.50;99.90
37002;DHT22;22913;51.910;8.374;2023-02-01T18:21:24;5.50;99.90
37002;DHT22;22913;51.910;8.374;2023-02-01T18:24:12;5.50;99.90